Georgetown, TX

00:52 CST le 21 décembre 2014 (GMT -0600)
Golden Oaks | Change Station
CLOSE
Current Station
Stations météorologiques personnelles
Location: Georgetown, TX
Altitude: 748 ft
Stations météo à proximité

Alt. 748 ft 30.67 °N, 97.68 °W | Updated 59 seconds ago

Couvert
Couvert
48.5 ° F
Paraît 48 ° F
N
0.0
Vent Variable Vent de SSE
Gusts 1.0 mph

Aujourd'hui
Haut(e) -- | Bas -- ° F
--% Risque de précip.
Hier
Haut(e) -- | Bas -- ° F
Precip. -- pouce
7:23 AM 5:33 PM
Lune descendante, 1% visible
Pression 30.15 pouce
Visibilité 5.0 Miles terrestres
Nuages Couvert 500 ft
Refroidissement éolien 48 ° F
Point de rosée 48 ° F
Humidité 96%
Précipitations 0.00 pouce
Profondeur de la couche neigeuse Non disponible.
UV 0 sur 12
Pollen 9.30 sur 12
Qualité de l'air Non disponible.
Flu Activity Non disponible.
METAR KGTU 210635Z 14003KT 5SM OVC005 09/08 A3015 RMK AO1

More Conditions Fewer Conditions

Pression 30.15 pouce
Visibilité 5.0 Miles terrestres
Nuages Couvert 500 ft
Refroidissement éolien 48 ° F
Point de rosée 48 ° F
Humidité 96%
Précipitations 0.00 pouce
Profondeur de la couche neigeuse Non disponible.
UV 0 sur 12
Pollen 9.30 sur 12
Qualité de l'air Non disponible.
Flu Activity Non disponible.
METAR KGTU 210635Z 14003KT 5SM OVC005 09/08 A3015 RMK AO1

More Conditions Fewer Conditions

10-Day Weather Forecast

Almanac

Astronomie

Dec. 21, 2014 Lever Coucher
Temps réel
Crépuscule civil
Crépuscule nautique
Crépuscule astronomique
Lune
Durée de lumière visible
Longueur du jour
Tomorrow will be .
, % of the Moon is Illuminated

Extrêmes aujourd'hui

State Highs State Lows

Community

WunderPhotos

Upload Photos

1,779,360 Photos téléchargées !

WunderBlogs® & News

Nearby

Qualité de l'air

  Qualité de l'air Indice de la qualité de l'air Polluant
Not available.

Épaisseur de neige

Station Depth Altitude

Activité sismique

Ville Distance Mag. Time & Date
Minimum magnitude displayed is 2.5.

Températures des eaux côtières

Lieu Température

Stations météo à proximité